createdAt,value
2019-01-27T00:04:18.877Z,65.70
2019-01-27T00:09:25.188Z,65.60
2019-01-27T00:14:31.886Z,66.40
2019-01-27T00:19:38.005Z,65.60
2019-01-27T00:24:43.724Z,65.60
2019-01-27T00:29:56.209Z,65.70
2019-01-27T00:35:03.727Z,65.60
2019-01-27T00:40:11.244Z,65.60
2019-01-27T00:45:17.705Z,65.60
2019-01-27T00:50:24.042Z,65.60
2019-01-27T00:55:30.727Z,65.50
2019-01-27T01:00:37.780Z,65.50
2019-01-27T01:05:45.527Z,65.50
2019-01-27T01:10:51.293Z,65.60
2019-01-27T01:15:57.336Z,65.60
2019-01-27T01:21:05.222Z,65.60
2019-01-27T01:26:12.957Z,65.60
2019-01-27T01:31:21.435Z,65.70
2019-01-27T01:36:28.898Z,65.70
2019-01-27T01:41:35.805Z,65.80
2019-01-27T01:46:42.168Z,65.80
2019-01-27T01:51:48.994Z,65.90
2019-01-27T01:56:55.601Z,65.80
2019-01-27T02:02:00.489Z,65.80
2019-01-27T02:07:09.476Z,65.90
2019-01-27T02:12:15.902Z,65.90
2019-01-27T02:17:21.475Z,66.00
2019-01-27T02:22:29.000Z,66.00
2019-01-27T02:27:35.871Z,66.00
2019-01-27T02:32:42.461Z,66.90
2019-01-27T02:37:49.939Z,66.10
2019-01-27T02:42:56.374Z,66.10
2019-01-27T02:48:03.294Z,66.60
2019-01-27T02:53:09.241Z,66.20
2019-01-27T02:58:15.347Z,66.20
2019-01-27T03:03:23.121Z,66.20
2019-01-27T03:08:36.139Z,66.00
2019-01-27T03:13:41.598Z,66.10
2019-01-27T03:18:48.040Z,66.20
2019-01-27T03:23:55.166Z,66.30
2019-01-27T03:29:01.748Z,66.20
2019-01-27T03:34:09.884Z,66.20
2019-01-27T03:39:15.066Z,66.20
2019-01-27T03:44:21.449Z,66.30
2019-01-27T03:49:28.343Z,66.30
2019-01-27T03:54:35.750Z,66.20
2019-01-27T03:59:42.021Z,66.20
2019-01-27T04:04:49.308Z,66.20
2019-01-27T04:09:57.560Z,66.20
2019-01-27T04:15:03.944Z,66.20
2019-01-27T04:20:16.648Z,66.20
2019-01-27T04:25:22.582Z,66.20
2019-01-27T04:30:32.327Z,66.20
2019-01-27T04:35:39.607Z,66.30
2019-01-27T04:40:47.296Z,66.20
2019-01-27T04:45:55.260Z,66.30
2019-01-27T04:51:02.124Z,66.30
2019-01-27T04:56:10.486Z,66.30
2019-01-27T05:01:16.225Z,66.30
2019-01-27T05:06:22.583Z,66.20
2019-01-27T05:11:28.500Z,66.90
2019-01-27T05:16:36.902Z,66.20
2019-01-27T05:21:43.845Z,66.00
2019-01-27T05:26:50.112Z,66.10
2019-01-27T05:31:56.727Z,66.00
2019-01-27T05:37:05.750Z,66.00
2019-01-27T05:42:12.961Z,66.00
2019-01-27T05:47:20.261Z,65.90
2019-01-27T05:52:26.814Z,66.00
2019-01-27T05:57:33.294Z,66.00
2019-01-27T06:02:40.205Z,66.00
2019-01-27T06:07:47.185Z,66.00
2019-01-27T06:12:54.417Z,65.90
2019-01-27T06:18:01.686Z,65.90
2019-01-27T06:23:07.793Z,66.00
2019-01-27T06:28:15.020Z,65.90
2019-01-27T06:33:50.052Z,65.90
2019-01-27T06:38:55.816Z,65.90
2019-01-27T06:44:01.728Z,65.90
2019-01-27T06:49:07.981Z,65.90
2019-01-27T06:54:15.256Z,65.90
2019-01-27T06:59:34.618Z,65.80
2019-01-27T07:04:49.561Z,65.80
2019-01-27T07:10:03.910Z,65.90
2019-01-27T07:15:40.913Z,66.40
2019-01-27T07:21:08.892Z,65.90
2019-01-27T07:26:41.898Z,65.80
2019-01-27T07:32:07.217Z,65.80
2019-01-27T07:37:30.476Z,65.90
2019-01-27T07:43:00.124Z,65.80
2019-01-27T07:48:32.337Z,65.70
2019-01-27T07:54:15.864Z,65.60
2019-01-27T07:59:47.832Z,65.50
2019-01-27T08:05:01.346Z,65.50
2019-01-27T08:10:17.840Z,65.50
2019-01-27T08:15:51.083Z,65.50
2019-01-27T08:21:31.613Z,65.40
2019-01-27T08:27:05.542Z,65.40
2019-01-27T08:32:38.251Z,65.30
2019-01-27T08:38:11.958Z,65.30
2019-01-27T08:43:50.561Z,65.20
2019-01-27T08:48:56.336Z,65.20
2019-01-27T08:54:02.221Z,65.20
2019-01-27T08:59:08.159Z,65.10
2019-01-27T09:04:19.717Z,65.30
2019-01-27T09:15:51.833Z,65.00
2019-01-27T09:21:29.437Z,65.00
2019-01-27T09:26:41.675Z,64.90
2019-01-27T09:32:06.861Z,64.90
2019-01-27T09:37:32.587Z,64.90
2019-01-27T09:43:00.232Z,64.90
2019-01-27T09:48:15.794Z,65.00
2019-01-27T09:53:41.804Z,64.90
2019-01-27T09:59:15.775Z,64.90
2019-01-27T10:04:40.078Z,64.80
2019-01-27T10:10:09.891Z,64.80
2019-01-27T10:15:29.797Z,64.90
2019-01-27T10:20:53.453Z,64.90
2019-01-27T10:26:05.805Z,65.00
2019-01-27T10:31:34.117Z,65.00
2019-01-27T10:37:11.971Z,65.10
2019-01-27T10:42:25.938Z,65.10
2019-01-27T10:47:42.135Z,65.00
2019-01-27T10:53:20.799Z,65.90
2019-01-27T10:58:55.485Z,65.20
2019-01-27T11:04:25.772Z,65.30
2019-01-27T11:09:57.318Z,65.30
2019-01-27T11:15:20.317Z,65.30
2019-01-27T11:26:52.504Z,65.50
2019-01-27T11:32:16.668Z,65.30
2019-01-27T11:37:50.283Z,65.40
2019-01-27T11:43:18.709Z,65.30
2019-01-27T11:48:42.360Z,65.30
2019-01-27T11:53:50.197Z,65.30
2019-01-27T11:58:57.424Z,65.30
2019-01-27T12:04:04.930Z,65.40
2019-01-27T12:09:11.365Z,65.40
2019-01-27T12:14:17.050Z,65.40
2019-01-27T12:19:25.193Z,65.50
2019-01-27T12:24:36.606Z,65.50
2019-01-27T12:29:43.987Z,65.50
2019-01-27T12:34:50.143Z,65.50
2019-01-27T12:39:57.782Z,65.70
2019-01-27T12:45:05.281Z,65.70
2019-01-27T12:50:15.576Z,65.90
2019-01-27T12:55:21.554Z,66.60
2019-01-27T13:00:49.741Z,65.70
2019-01-27T13:05:56.220Z,65.60
2019-01-27T13:11:05.623Z,65.60
2019-01-27T13:16:12.129Z,65.60
2019-01-27T13:21:17.574Z,65.50
2019-01-27T13:26:47.175Z,65.50
2019-01-27T13:31:57.266Z,65.60
2019-01-27T13:37:03.765Z,66.60
2019-01-27T13:42:10.387Z,65.80
2019-01-27T13:47:16.568Z,65.70
2019-01-27T13:53:01.902Z,65.90
2019-01-27T13:58:10.826Z,65.90
2019-01-27T14:03:17.382Z,65.90
2019-01-27T14:09:16.878Z,66.80
2019-01-27T14:15:15.724Z,66.10
2019-01-27T14:20:31.241Z,66.10
2019-01-27T14:25:37.601Z,66.00
2019-01-27T14:30:46.328Z,66.10
2019-01-27T14:35:52.806Z,66.10
2019-01-27T14:40:59.811Z,66.20
2019-01-27T14:46:05.997Z,66.20
2019-01-27T14:51:13.230Z,66.20
2019-01-27T14:56:18.593Z,66.20
2019-01-27T15:01:24.874Z,66.30
2019-01-27T15:06:31.256Z,66.30
2019-01-27T15:11:36.843Z,66.40
2019-01-27T15:16:44.285Z,66.40
2019-01-27T15:21:51.193Z,66.30
2019-01-27T15:26:59.250Z,66.50
2019-01-27T15:32:07.316Z,66.50
2019-01-27T15:37:13.490Z,66.50
2019-01-27T15:42:18.876Z,66.30
2019-01-27T15:47:25.155Z,66.20
2019-01-27T15:52:32.481Z,66.00
2019-01-27T15:57:38.618Z,65.90
2019-01-27T16:02:45.774Z,66.00
2019-01-27T16:07:51.258Z,66.00
2019-01-27T16:12:58.054Z,65.90
2019-01-27T16:18:04.495Z,65.80
2019-01-27T16:23:29.573Z,65.80
2019-01-27T16:28:35.924Z,65.80
2019-01-27T16:33:53.003Z,65.70
2019-01-27T16:38:58.972Z,65.70
2019-01-27T16:44:05.270Z,65.70
2019-01-27T16:49:11.788Z,65.80
2019-01-27T16:54:17.268Z,65.90
2019-01-27T16:59:23.241Z,65.80
2019-01-27T17:04:29.122Z,65.80
2019-01-27T17:09:35.088Z,65.90
2019-01-27T17:14:43.213Z,65.80
2019-01-27T17:19:50.221Z,65.70
2019-01-27T17:24:56.929Z,65.60
2019-01-27T17:30:02.478Z,65.70
2019-01-27T17:35:09.682Z,65.80
2019-01-27T17:40:16.785Z,65.80
2019-01-27T17:45:22.848Z,65.70
2019-01-27T17:50:31.292Z,65.70
2019-01-27T17:55:43.711Z,65.60
2019-01-27T18:01:17.314Z,65.60
2019-01-27T18:06:31.134Z,65.60
2019-01-27T18:11:43.959Z,65.60
2019-01-27T18:16:49.564Z,65.60
2019-01-27T18:21:55.299Z,65.60
2019-01-27T18:27:00.637Z,65.70
2019-01-27T18:32:07.244Z,65.60
2019-01-27T18:37:16.074Z,65.50
2019-01-27T18:42:21.933Z,65.50
2019-01-27T18:47:27.166Z,65.30
2019-01-27T18:52:32.667Z,65.60
2019-01-27T18:57:49.628Z,65.50
2019-01-27T19:03:00.776Z,65.50
2019-01-27T19:08:40.111Z,65.30
2019-01-27T19:14:10.248Z,65.30
2019-01-27T19:19:32.176Z,65.30
2019-01-27T19:24:45.855Z,65.50
2019-01-27T19:30:13.184Z,65.40
2019-01-27T19:35:37.506Z,65.50
2019-01-27T19:41:20.427Z,65.30
2019-01-27T19:46:42.157Z,65.20
2019-01-27T19:52:16.518Z,65.00
2019-01-27T19:57:42.032Z,65.20
2019-01-27T20:03:05.446Z,65.20
2019-01-27T20:08:32.930Z,65.20
2019-01-27T20:13:55.855Z,65.20
2019-01-27T20:19:23.784Z,65.30
2019-01-27T20:24:49.586Z,65.00
2019-01-27T20:30:11.951Z,65.10
2019-01-27T20:35:28.363Z,65.00
2019-01-27T20:40:52.480Z,65.00
2019-01-27T20:46:14.156Z,65.00
2019-01-27T20:57:53.100Z,64.90
2019-01-27T21:03:16.883Z,64.70
2019-01-27T21:08:28.109Z,64.70
2019-01-27T21:13:49.109Z,64.70
2019-01-27T21:19:19.118Z,64.80
2019-01-27T21:24:24.966Z,64.70
2019-01-27T21:29:48.960Z,64.70
2019-01-27T21:34:55.252Z,64.70
2019-01-27T21:40:00.277Z,64.70
2019-01-27T21:45:08.068Z,64.70
2019-01-27T21:50:20.764Z,64.50
2019-01-27T21:58:57.495Z,63.90
2019-01-27T22:04:07.698Z,64.50
2019-01-27T22:09:15.641Z,64.40
2019-01-27T22:14:22.512Z,64.10
2019-01-27T22:19:28.634Z,64.40
2019-01-27T22:24:35.225Z,64.40
2019-01-27T22:29:43.185Z,64.30
2019-01-27T22:34:48.561Z,64.30
2019-01-27T22:39:55.659Z,64.30
2019-01-27T22:45:04.493Z,64.20
2019-01-27T22:50:14.100Z,64.30
2019-01-27T22:55:20.152Z,64.20
2019-01-27T23:00:58.403Z,64.30
2019-01-27T23:06:11.409Z,64.20
2019-01-27T23:11:18.017Z,64.10
2019-01-27T23:16:25.570Z,64.00
2019-01-27T23:21:33.052Z,64.10
2019-01-27T23:26:39.479Z,64.20
2019-01-27T23:31:46.229Z,64.10
2019-01-27T23:36:52.862Z,64.20
2019-01-27T23:41:59.471Z,64.00
2019-01-27T23:47:05.637Z,64.10
2019-01-27T23:52:11.283Z,64.00
2019-01-27T23:57:19.170Z,64.00
